Time;durP1;ratioP1;P1;durP2;ratioP2;P2;SDS_P1;SDS_P2;PMS_P1;PMS_P2;Temp;Humidity;BMP_temperature;BMP_pressure;BME280_temperature;BME280_humidity;BME280_pressure;Samples;Min_cycle;Max_cycle;Signal;HPM_P1;HPM_P2
2022/09/08 00:01:26;;;;;;;1.93;1.00;;;26.40;69.40;;;;;;5096386;28;20622;-68
2022/09/08 00:03:59;;;;;;;1.77;0.80;;;26.30;69.80;;;;;;5097930;28;20992;-68
2022/09/08 00:06:32;;;;;;;1.40;1.30;;;26.20;69.00;;;;;;5097864;28;20493;-68
2022/09/08 00:09:05;;;;;;;2.63;1.33;;;26.10;69.20;;;;;;5105988;28;20458;-69
2022/09/08 00:11:40;;;;;;;0.87;0.87;;;26.00;70.50;;;;;;5104341;28;20785;-68
2022/09/08 00:14:10;;;;;;;1.10;1.10;;;26.00;71.40;;;;;;5102548;28;20479;-67
2022/09/08 00:16:42;;;;;;;1.33;1.23;;;25.90;71.10;;;;;;5104038;28;20452;-67
2022/09/08 00:19:13;;;;;;;1.50;1.40;;;25.90;71.90;;;;;;5103562;28;20478;-67
2022/09/08 00:21:44;;;;;;;1.30;1.20;;;26.00;72.60;;;;;;5102281;28;20460;-65
2022/09/08 00:24:16;;;;;;;1.40;1.17;;;26.10;71.50;;;;;;5104119;28;20518;-66
2022/09/08 00:26:47;;;;;;;1.07;0.97;;;26.00;71.70;;;;;;5102900;28;20464;-65
2022/09/08 00:29:18;;;;;;;1.37;1.27;;;26.00;72.60;;;;;;5098879;28;20489;-67
2022/09/08 00:31:49;;;;;;;1.13;1.03;;;26.00;71.60;;;;;;5103583;28;20448;-66
2022/09/08 00:34:20;;;;;;;0.80;0.80;;;25.90;69.90;;;;;;5108169;28;20520;-66
2022/09/08 00:36:52;;;;;;;0.97;0.70;;;25.80;71.90;;;;;;5101953;28;20447;-69
2022/09/08 00:39:25;;;;;;;1.00;1.00;;;25.80;72.20;;;;;;5103914;28;20511;-66
2022/09/08 00:41:57;;;;;;;1.13;1.10;;;25.80;71.10;;;;;;5103645;28;20478;-66
2022/09/08 00:44:40;;;;;;;1.23;1.13;;;25.60;70.90;;;;;;5109928;28;20539;-68
2022/09/08 00:47:17;;;;;;;0.90;0.90;;;25.50;72.40;;;;;;5115632;28;20463;-67
2022/09/08 00:49:52;;;;;;;1.23;1.00;;;25.50;71.70;;;;;;5105419;28;20496;-69
2022/09/08 00:52:24;;;;;;;0.93;0.93;;;25.40;72.90;;;;;;5102524;28;20514;-69
2022/09/08 00:54:56;;;;;;;1.60;1.40;;;25.50;72.60;;;;;;5103512;28;20473;-68
2022/09/08 00:57:27;;;;;;;1.23;1.13;;;25.50;73.10;;;;;;5092954;28;20869;-68
2022/09/08 00:59:58;;;;;;;1.50;1.03;;;25.60;73.80;;;;;;5103859;28;20479;-64
2022/09/08 01:02:29;;;;;;;1.03;1.03;;;25.60;73.00;;;;;;5108393;28;21254;-67
2022/09/08 01:05:03;;;;;;;1.47;1.37;;;25.70;71.80;;;;;;5096886;28;20857;-67
2022/09/08 01:13:31;;;;;;;0.87;0.63;;;25.90;72.80;;;;;;5102234;28;20471;-66
2022/09/08 01:16:01;;;;;;;1.47;0.93;;;25.90;72.80;;;;;;5107843;28;20454;-65
2022/09/08 01:18:32;;;;;;;1.57;1.47;;;25.90;73.20;;;;;;5121944;28;20561;-67
2022/09/08 01:21:19;;;;;;;0.80;0.80;;;25.80;74.00;;;;;;5104450;28;20453;-67
2022/09/08 01:24:29;;;;;;;1.13;1.03;;;25.80;74.60;;;;;;5102779;28;20492;-68
2022/09/08 01:27:21;;;;;;;1.00;0.70;;;25.70;74.20;;;;;;5076493;28;20487;-66
2022/09/08 01:29:55;;;;;;;0.80;0.80;;;25.70;73.60;;;;;;5074366;28;20473;-67
2022/09/08 01:32:27;;;;;;;1.23;1.13;;;25.60;75.20;;;;;;5058807;28;20477;-66
2022/09/08 01:34:58;;;;;;;0.93;0.93;;;25.40;75.00;;;;;;5057674;28;20485;-66
2022/09/08 01:37:29;;;;;;;1.20;1.10;;;25.30;73.90;;;;;;5048693;28;20475;-68
2022/09/08 01:40:00;;;;;;;1.23;1.13;;;25.30;74.60;;;;;;5073275;28;20471;-67
2022/09/08 01:42:33;;;;;;;1.00;1.00;;;25.10;75.20;;;;;;5059005;28;20461;-68
2022/09/08 01:45:04;;;;;;;1.00;0.90;;;25.10;76.20;;;;;;5059744;28;20507;-68
2022/09/08 01:47:35;;;;;;;1.50;1.40;;;25.00;76.40;;;;;;5058735;28;20583;-70
2022/09/08 01:50:06;;;;;;;1.83;1.20;;;24.90;76.80;;;;;;5076905;28;20459;-69
2022/09/08 01:52:37;;;;;;;1.17;1.17;;;24.80;74.60;;;;;;5075877;28;20482;-69
2022/09/08 01:55:08;;;;;;;1.80;1.50;;;24.80;73.90;;;;;;5070708;28;20483;-65
2022/09/08 01:57:40;;;;;;;1.40;1.30;;;24.70;74.50;;;;;;5077004;28;20468;-66
2022/09/08 02:00:12;;;;;;;1.77;1.30;;;24.70;74.90;;;;;;5101938;28;20466;-63
2022/09/08 02:02:43;;;;;;;1.40;1.30;;;24.70;75.60;;;;;;5100740;28;21087;-64
2022/09/08 02:05:14;;;;;;;1.87;1.33;;;24.60;75.80;;;;;;5096020;28;20527;-66
2022/09/08 02:07:48;;;;;;;1.90;1.60;;;24.60;76.60;;;;;;5092679;28;20454;-65
2022/09/08 02:10:19;;;;;;;1.70;1.60;;;24.50;77.40;;;;;;5101605;28;20991;-65
2022/09/08 02:12:52;;;;;;;1.60;1.50;;;24.40;78.00;;;;;;5101563;28;20461;-65
2022/09/08 02:15:22;;;;;;;1.43;1.33;;;24.30;78.80;;;;;;5108316;28;20446;-66
2022/09/08 02:17:53;;;;;;;2.20;2.10;;;24.20;80.10;;;;;;5115591;28;20497;-65
2022/09/08 02:20:24;;;;;;;3.70;1.70;;;24.00;81.00;;;;;;5107467;28;20454;-66
2022/09/08 02:22:55;;;;;;;1.40;1.30;;;23.90;80.90;;;;;;5098131;28;20449;-67
2022/09/08 02:25:26;;;;;;;1.73;0.93;;;23.90;80.90;;;;;;5112272;28;20488;-67
2022/09/08 02:27:58;;;;;;;0.87;0.87;;;23.70;81.40;;;;;;5102216;28;20451;-66
2022/09/08 02:30:29;;;;;;;1.53;1.37;;;23.70;82.00;;;;;;5092534;28;20471;-67
2022/09/08 02:32:59;;;;;;;1.33;1.23;;;23.50;82.40;;;;;;5091312;28;20926;-66
2022/09/08 02:35:31;;;;;;;1.17;1.00;;;23.40;83.50;;;;;;5098650;28;20458;-67
2022/09/08 02:38:01;;;;;;;1.20;1.10;;;23.30;82.20;;;;;;5105098;28;20989;-67
2022/09/08 02:40:32;;;;;;;1.30;0.97;;;23.20;81.50;;;;;;5101797;28;20462;-66
2022/09/08 02:43:04;;;;;;;1.47;1.07;;;23.10;82.20;;;;;;5098648;28;20467;-66
2022/09/08 02:45:39;;;;;;;1.00;0.73;;;22.90;83.30;;;;;;5088769;28;20502;-67
2022/09/08 02:48:10;;;;;;;1.07;0.87;;;22.80;82.90;;;;;;5105503;28;20457;-65
2022/09/08 02:50:40;;;;;;;1.10;0.70;;;22.80;81.10;;;;;;5104788;28;20462;-65
2022/09/08 02:53:11;;;;;;;1.93;0.80;;;22.70;80.70;;;;;;5105205;28;20446;-63
2022/09/08 02:55:43;;;;;;;0.93;0.93;;;22.70;79.90;;;;;;5099434;28;20459;-65
2022/09/08 02:58:15;;;;;;;1.57;0.93;;;22.60;80.20;;;;;;5104930;28;20521;-65
2022/09/08 03:00:46;;;;;;;1.77;0.90;;;22.50;79.80;;;;;;5094798;28;20771;-65
2022/09/08 03:03:17;;;;;;;1.23;0.57;;;22.30;79.50;;;;;;5120097;27;20492;-65
2022/09/08 03:05:47;;;;;;;1.60;0.90;;;22.30;79.90;;;;;;5104046;28;20505;-66
2022/09/08 03:08:19;;;;;;;2.03;0.80;;;22.20;80.30;;;;;;5104861;28;20463;-66
2022/09/08 03:10:50;;;;;;;2.20;0.70;;;22.10;80.10;;;;;;5102098;28;20531;-66
2022/09/08 03:13:23;;;;;;;1.00;0.90;;;22.00;81.20;;;;;;5103656;28;20459;-66
2022/09/08 03:15:54;;;;;;;2.80;1.03;;;21.90;81.50;;;;;;5100127;28;20800;-65
2022/09/08 03:18:26;;;;;;;1.60;1.40;;;21.80;81.90;;;;;;5101963;28;20554;-66
2022/09/08 03:21:04;;;;;;;1.33;1.07;;;21.70;81.10;;;;;;5120949;28;20450;-66
2022/09/08 03:23:35;;;;;;;2.83;1.60;;;21.60;79.90;;;;;;5103710;28;20522;-67
2022/09/08 03:26:07;;;;;;;1.60;1.00;;;21.60;78.90;;;;;;5103378;28;20468;-66
2022/09/08 03:28:40;;;;;;;1.00;0.57;;;21.50;78.40;;;;;;5108089;28;20454;-66
2022/09/08 03:31:13;;;;;;;1.40;1.07;;;21.50;78.10;;;;;;5107183;28;20458;-66
2022/09/08 03:33:44;;;;;;;2.03;1.10;;;21.40;76.50;;;;;;5097305;28;20447;-65
2022/09/08 03:36:16;;;;;;;1.50;0.80;;;21.30;76.60;;;;;;5089538;28;20437;-66
2022/09/08 03:38:47;;;;;;;4.00;0.63;;;21.30;75.60;;;;;;5096621;28;20457;-66
2022/09/08 03:41:18;;;;;;;1.57;1.00;;;21.30;74.10;;;;;;5109693;28;20756;-66
2022/09/08 03:43:52;;;;;;;0.73;0.60;;;21.20;73.60;;;;;;5118911;28;20438;-67
2022/09/08 03:46:23;;;;;;;2.57;0.87;;;21.20;73.20;;;;;;5124660;28;20571;-67
2022/09/08 03:48:54;;;;;;;1.50;1.10;;;21.10;74.20;;;;;;5118039;28;20454;-66
2022/09/08 03:51:26;;;;;;;0.90;0.90;;;21.00;74.70;;;;;;5104051;28;20545;-67
2022/09/08 03:56:45;;;;;;;1.40;0.70;;;20.80;72.70;;;;;;5104964;28;20437;-66
2022/09/08 03:59:17;;;;;;;0.90;0.70;;;20.70;73.80;;;;;;5103957;28;20473;-66
2022/09/08 04:01:48;;;;;;;1.03;0.40;;;20.70;73.30;;;;;;5103405;28;20429;-66
2022/09/08 04:04:19;;;;;;;0.70;0.60;;;20.70;71.90;;;;;;5104441;28;20447;-66
2022/09/08 04:06:50;;;;;;;1.90;0.80;;;20.70;71.40;;;;;;5100792;28;20476;-66
2022/09/08 04:09:20;;;;;;;0.80;0.60;;;20.60;71.30;;;;;;5102493;28;20489;-65
2022/09/08 04:11:51;;;;;;;0.60;0.60;;;20.60;69.80;;;;;;5107049;28;20460;-66
2022/09/08 04:14:25;;;;;;;0.67;0.60;;;20.60;69.10;;;;;;5107495;28;20451;-66
2022/09/08 04:16:55;;;;;;;0.70;0.57;;;20.50;68.80;;;;;;5114351;28;20440;-66
2022/09/08 04:19:26;;;;;;;0.70;0.70;;;20.50;69.00;;;;;;5116016;28;20483;-66
2022/09/08 04:21:57;;;;;;;2.03;0.83;;;20.50;67.30;;;;;;5107173;28;20810;-65
2022/09/08 04:24:28;;;;;;;0.80;0.57;;;20.40;66.60;;;;;;5101498;28;20426;-67
2022/09/08 04:26:58;;;;;;;0.50;0.50;;;20.30;65.90;;;;;;5098011;28;20455;-67
2022/09/08 04:29:31;;;;;;;1.17;0.70;;;20.20;65.90;;;;;;5113498;28;20441;-67
2022/09/08 04:32:02;;;;;;;2.27;0.60;;;20.10;66.20;;;;;;5100464;28;20552;-66
2022/09/08 04:34:32;;;;;;;1.23;0.43;;;20.00;67.90;;;;;;5110263;28;20525;-66
2022/09/08 04:37:04;;;;;;;0.73;0.53;;;19.90;67.20;;;;;;5102299;28;20461;-66
2022/09/08 04:39:35;;;;;;;2.10;0.50;;;19.80;66.60;;;;;;5091754;28;20454;-66
2022/09/08 04:42:06;;;;;;;1.50;0.70;;;19.80;65.90;;;;;;5102196;28;20443;-66
2022/09/08 04:44:39;;;;;;;0.70;0.63;;;19.70;66.80;;;;;;5106300;28;20451;-67
2022/09/08 04:47:09;;;;;;;1.30;0.67;;;19.60;67.00;;;;;;5103787;28;20534;-66
2022/09/08 04:49:40;;;;;;;1.77;0.50;;;19.60;67.90;;;;;;5102754;28;20485;-66
2022/09/08 04:52:11;;;;;;;1.13;0.83;;;19.50;68.30;;;;;;5108567;28;20443;-66
2022/09/08 04:54:42;;;;;;;0.83;0.83;;;19.30;68.80;;;;;;5105324;28;20463;-67
2022/09/08 04:57:15;;;;;;;2.60;1.80;;;19.20;69.80;;;;;;5086898;28;20446;-67
2022/09/08 04:59:47;;;;;;;1.87;1.77;;;19.20;70.70;;;;;;5103844;28;20433;-67
2022/09/08 05:02:18;;;;;;;2.73;2.53;;;19.10;72.20;;;;;;5094057;28;20499;-66
2022/09/08 05:04:49;;;;;;;2.00;1.70;;;19.10;71.80;;;;;;5100026;28;20433;-66
2022/09/08 05:07:24;;;;;;;1.63;1.53;;;18.90;72.60;;;;;;5098593;28;20440;-67
2022/09/08 05:09:55;;;;;;;1.93;1.73;;;18.70;72.00;;;;;;5101323;28;20441;-67
2022/09/08 05:12:27;;;;;;;2.13;0.80;;;18.60;73.70;;;;;;5100662;28;20485;-67
2022/09/08 05:14:59;;;;;;;0.90;0.90;;;18.50;73.80;;;;;;5100172;28;20458;-66
2022/09/08 05:17:31;;;;;;;1.00;0.80;;;18.50;74.20;;;;;;5102853;28;20486;-67
2022/09/08 05:20:02;;;;;;;1.50;0.73;;;18.40;72.70;;;;;;5104151;28;20823;-66
2022/09/08 05:22:32;;;;;;;0.83;0.80;;;18.40;73.70;;;;;;5103339;28;20462;-66
2022/09/08 05:25:03;;;;;;;1.23;0.77;;;18.40;75.60;;;;;;5102897;28;20421;-67
2022/09/08 05:27:34;;;;;;;0.70;0.63;;;18.30;75.80;;;;;;5102967;28;20482;-67
2022/09/08 05:30:08;;;;;;;0.53;0.50;;;18.20;73.50;;;;;;5103058;28;20756;-68
2022/09/08 05:32:38;;;;;;;0.97;0.60;;;18.10;75.80;;;;;;5103851;28;20432;-68
2022/09/08 05:35:10;;;;;;;5.43;0.80;;;18.10;76.20;;;;;;5102038;28;20462;-67
2022/09/08 05:37:40;;;;;;;1.00;0.97;;;18.10;76.90;;;;;;5102188;28;20429;-68
2022/09/08 05:40:12;;;;;;;0.97;0.90;;;17.90;77.30;;;;;;5116507;28;20453;-66
2022/09/08 05:42:43;;;;;;;0.47;0.30;;;17.90;78.70;;;;;;5104101;28;20774;-65
2022/09/08 05:45:16;;;;;;;1.87;0.60;;;17.80;79.50;;;;;;5116645;28;20504;-65
2022/09/08 05:47:46;;;;;;;1.53;0.67;;;17.60;78.20;;;;;;5101425;28;20980;-68
2022/09/08 05:50:18;;;;;;;1.20;0.80;;;17.60;78.50;;;;;;5110142;28;20466;-65
2022/09/08 05:52:48;;;;;;;0.73;0.73;;;17.60;79.00;;;;;;5101079;28;20510;-67
2022/09/08 05:55:19;;;;;;;0.70;0.67;;;17.60;78.80;;;;;;5101135;28;20428;-67
2022/09/08 05:57:50;;;;;;;1.20;0.60;;;17.50;80.90;;;;;;5101442;28;20444;-67
2022/09/08 06:00:43;;;;;;;3.80;0.60;;;17.40;81.00;;;;;;5100833;28;20454;-67
2022/09/08 06:03:14;;;;;;;0.87;0.80;;;17.40;82.80;;;;;;5091956;28;20433;-66
2022/09/08 06:05:45;;;;;;;1.07;0.60;;;17.40;84.00;;;;;;5106337;28;20515;-67
2022/09/08 06:08:15;;;;;;;0.70;0.70;;;17.30;85.40;;;;;;5106552;28;20466;-67
2022/09/08 06:10:53;;;;;;;1.33;0.90;;;17.20;84.70;;;;;;5111061;28;20428;-68
2022/09/08 06:13:24;;;;;;;2.67;0.80;;;17.20;86.10;;;;;;5116829;28;20424;-67
2022/09/08 06:16:03;;;;;;;2.50;1.03;;;17.00;85.80;;;;;;5119803;28;20442;-67
2022/09/08 06:18:35;;;;;;;2.33;0.80;;;17.00;84.00;;;;;;5125906;28;20528;-67
2022/09/08 06:21:09;;;;;;;0.80;0.50;;;17.00;84.70;;;;;;5126130;28;20508;-67
2022/09/08 06:23:40;;;;;;;0.93;0.63;;;16.90;83.90;;;;;;5114815;28;20527;-68
2022/09/08 06:26:29;;;;;;;1.73;0.70;;;16.90;83.90;;;;;;5105650;28;20490;-67
2022/09/08 06:29:04;;;;;;;1.40;0.73;;;16.90;84.30;;;;;;5126209;27;20453;-68
2022/09/08 06:31:42;;;;;;;1.00;0.60;;;16.90;83.40;;;;;;5126940;28;20478;-68
2022/09/08 06:34:19;;;;;;;1.30;0.90;;;16.80;84.40;;;;;;5122728;28;20453;-68
2022/09/08 06:36:53;;;;;;;2.03;0.90;;;16.70;85.10;;;;;;5125423;28;20450;-68
2022/09/08 06:39:27;;;;;;;0.77;0.50;;;16.70;85.30;;;;;;5124779;28;20510;-67
2022/09/08 06:42:05;;;;;;;2.10;0.90;;;16.60;85.00;;;;;;5119821;28;20461;-68
2022/09/08 06:44:39;;;;;;;1.80;0.70;;;16.60;84.70;;;;;;5126204;28;20506;-68
2022/09/08 06:47:18;;;;;;;0.50;0.50;;;16.60;85.40;;;;;;5125622;28;20489;-67
2022/09/08 06:49:51;;;;;;;0.50;0.50;;;16.50;85.50;;;;;;5122885;28;20516;-68
2022/09/08 06:52:30;;;;;;;0.90;0.90;;;16.50;84.40;;;;;;5106688;28;20469;-68
2022/09/08 06:55:18;;;;;;;0.83;0.83;;;16.50;83.90;;;;;;5097249;28;20462;-68
2022/09/08 06:57:57;;;;;;;2.87;0.67;;;16.50;84.20;;;;;;5109295;28;20461;-68
2022/09/08 07:00:41;;;;;;;1.90;0.90;;;16.40;83.80;;;;;;5108722;28;20532;-67
2022/09/08 07:03:33;;;;;;;2.10;0.90;;;16.40;85.30;;;;;;5100935;28;20462;-67
2022/09/08 07:06:09;;;;;;;2.00;0.43;;;16.30;84.80;;;;;;5104285;28;21025;-68
2022/09/08 07:09:01;;;;;;;0.80;0.80;;;16.30;86.40;;;;;;5105425;28;20916;-67
2022/09/08 07:11:47;;;;;;;1.07;0.60;;;16.20;86.20;;;;;;5111986;28;20472;-67
2022/09/08 07:15:02;;;;;;;1.30;0.90;;;16.20;87.90;;;;;;5101685;28;20460;-68
2022/09/08 07:17:39;;;;;;;2.63;0.57;;;16.10;87.60;;;;;;5084008;28;20896;-67
2022/09/08 07:20:14;;;;;;;0.80;0.73;;;16.10;87.70;;;;;;5108886;28;20442;-67
2022/09/08 07:22:50;;;;;;;2.00;0.83;;;16.00;87.60;;;;;;5104802;28;20562;-68
2022/09/08 07:25:26;;;;;;;0.60;0.50;;;15.90;89.30;;;;;;5106253;28;20469;-67
2022/09/08 07:28:03;;;;;;;1.57;0.80;;;15.90;90.10;;;;;;5092770;28;20543;-68
2022/09/08 07:30:37;;;;;;;1.53;0.80;;;15.90;90.00;;;;;;5104722;28;20469;-67
2022/09/08 07:33:16;;;;;;;1.00;0.47;;;15.70;90.20;;;;;;5103784;28;20474;-67
2022/09/08 07:36:14;;;;;;;1.60;0.60;;;15.70;91.10;;;;;;5103336;28;20485;-67
2022/09/08 07:38:49;;;;;;;3.40;1.10;;;15.60;91.50;;;;;;5104021;28;20451;-67
2022/09/08 07:41:23;;;;;;;2.10;0.93;;;15.60;91.80;;;;;;5103443;28;20424;-67
2022/09/08 07:43:59;;;;;;;1.23;0.80;;;15.50;92.20;;;;;;5103932;28;20573;-67
2022/09/08 07:46:43;;;;;;;0.57;0.57;;;15.40;92.50;;;;;;5096118;28;20994;-67
2022/09/08 07:49:22;;;;;;;1.77;0.60;;;15.40;92.60;;;;;;5101461;28;20464;-67
2022/09/08 07:52:02;;;;;;;0.57;0.50;;;15.30;93.40;;;;;;5115549;28;20538;-67
2022/09/08 07:54:59;;;;;;;1.60;0.60;;;15.30;93.30;;;;;;5104022;28;20976;-67
2022/09/08 07:57:40;;;;;;;1.80;0.90;;;15.20;94.30;;;;;;5110563;28;20454;-67
2022/09/08 08:00:15;;;;;;;1.13;0.70;;;15.10;94.20;;;;;;5104577;28;20454;-67
2022/09/08 08:03:17;;;;;;;0.77;0.67;;;15.10;95.00;;;;;;5102432;28;20455;-67
2022/09/08 08:05:52;;;;;;;1.50;0.90;;;15.00;95.80;;;;;;5112515;28;20450;-67
2022/09/08 08:08:30;;;;;;;1.27;0.70;;;15.00;95.20;;;;;;5106268;28;20500;-67
2022/09/08 08:11:11;;;;;;;0.77;0.70;;;14.90;96.10;;;;;;5108704;27;20463;-67
2022/09/08 08:13:59;;;;;;;0.87;0.80;;;14.80;96.20;;;;;;5106341;28;20449;-67
2022/09/08 08:16:40;;;;;;;1.47;0.70;;;14.80;97.20;;;;;;5100219;28;20477;-67
2022/09/08 08:19:26;;;;;;;1.90;1.10;;;14.70;97.60;;;;;;5103224;28;20816;-67
2022/09/08 08:22:05;;;;;;;1.27;1.13;;;14.70;97.90;;;;;;5100743;28;20488;-67
2022/09/08 08:24:42;;;;;;;4.73;1.07;;;14.60;98.40;;;;;;5103182;28;20488;-67
2022/09/08 08:27:23;;;;;;;1.10;0.90;;;14.50;99.20;;;;;;5102751;28;20494;-67
2022/09/08 08:30:13;;;;;;;1.13;0.80;;;14.50;99.70;;;;;;5108907;28;20458;-67
2022/09/08 08:32:49;;;;;;;1.83;0.83;;;14.40;99.20;;;;;;5090098;28;20462;-67
2022/09/08 08:35:26;;;;;;;0.97;0.70;;;14.40;99.50;;;;;;5108697;28;20470;-67
2022/09/08 08:37:57;;;;;;;3.43;0.90;;;14.30;99.90;;;;;;5102520;28;20529;-67
2022/09/08 08:40:49;;;;;;;2.80;0.90;;;14.20;99.90;;;;;;5096424;28;20454;-67
2022/09/08 08:43:46;;;;;;;4.00;1.30;;;14.00;99.90;;;;;;5099953;28;20946;-67
2022/09/08 08:46:48;;;;;;;2.23;1.47;;;14.10;99.90;;;;;;5102513;28;20458;-67
2022/09/08 08:49:44;;;;;;;0.80;0.60;;;14.10;99.90;;;;;;5075093;28;20466;-67
2022/09/08 08:52:29;;;;;;;1.53;0.80;;;14.10;99.90;;;;;;5105284;28;20465;-67
2022/09/08 08:55:28;;;;;;;0.40;0.40;;;14.10;99.90;;;;;;5093716;28;20462;-67
2022/09/08 08:58:20;;;;;;;1.27;0.70;;;13.90;99.90;;;;;;5100193;28;20461;-67
2022/09/08 09:01:22;;;;;;;0.77;0.40;;;14.00;99.90;;;;;;5103334;28;20462;-68
2022/09/08 09:04:06;;;;;;;1.63;0.90;;;13.80;99.90;;;;;;5102747;28;20548;-67
2022/09/08 09:06:51;;;;;;;0.63;0.63;;;13.80;99.90;;;;;;5101514;28;20465;-67
2022/09/08 09:09:39;;;;;;;4.07;1.10;;;13.70;99.90;;;;;;5103804;28;20474;-67
2022/09/08 09:12:39;;;;;;;1.40;0.70;;;13.70;99.90;;;;;;5101662;28;20478;-67
2022/09/08 09:15:32;;;;;;;3.40;1.00;;;13.80;99.90;;;;;;5096471;28;20466;-67
2022/09/08 09:18:54;;;;;;;0.80;0.60;;;13.80;99.90;;;;;;5098106;28;20477;-67
2022/09/08 09:21:32;;;;;;;1.47;0.90;;;13.60;99.90;;;;;;5104580;28;20466;-67
2022/09/08 09:24:12;;;;;;;2.07;0.87;;;13.60;99.90;;;;;;5109593;28;20462;-67
2022/09/08 09:26:49;;;;;;;1.40;0.90;;;13.60;99.90;;;;;;5100651;28;20484;-67
2022/09/08 09:29:22;;;;;;;1.30;0.60;;;13.60;99.90;;;;;;5104323;28;20482;-67
2022/09/08 09:32:28;;;;;;;1.13;0.53;;;13.60;99.90;;;;;;5112589;28;20458;-67
2022/09/08 09:35:42;;;;;;;1.00;1.00;;;13.60;99.90;;;;;;5094929;28;20466;-67
2022/09/08 09:38:51;;;;;;;1.20;1.10;;;13.50;99.90;;;;;;5060593;28;20956;-67
2022/09/08 09:42:05;;;;;;;0.63;0.63;;;13.40;99.90;;;;;;5040906;28;20526;-67
2022/09/08 09:45:19;;;;;;;1.43;1.10;;;13.30;99.90;;;;;;5003658;28;20467;-67
2022/09/08 09:48:10;;;;;;;1.50;0.90;;;13.30;99.90;;;;;;5003249;28;20501;-67
2022/09/08 09:50:56;;;;;;;1.37;0.80;;;13.20;99.90;;;;;;4995299;28;20467;-67
2022/09/08 09:53:50;;;;;;;2.40;1.10;;;13.10;99.90;;;;;;5002921;28;20493;-67
2022/09/08 09:57:07;;;;;;;1.57;0.77;;;13.10;99.90;;;;;;5001944;28;20471;-67
2022/09/08 10:00:27;;;;;;;0.80;0.80;;;13.00;99.90;;;;;;5002066;28;20490;-67
2022/09/08 10:03:33;;;;;;;1.37;0.80;;;13.00;99.90;;;;;;4998506;28;20470;-66
2022/09/08 10:06:25;;;;;;;1.30;1.20;;;13.10;99.90;;;;;;5001717;28;21481;-66
2022/09/08 10:09:36;;;;;;;1.60;0.70;;;13.00;99.90;;;;;;5001925;28;20918;-67
2022/09/08 10:12:40;;;;;;;4.33;1.43;;;12.90;99.90;;;;;;5000499;28;20479;-66
2022/09/08 10:15:50;;;;;;;3.17;0.70;;;12.90;99.90;;;;;;5059711;28;20466;-67
2022/09/08 10:18:51;;;;;;;0.90;0.60;;;12.90;99.90;;;;;;5090419;28;20482;-66
2022/09/08 10:21:55;;;;;;;0.50;0.50;;;12.80;99.90;;;;;;5115430;28;20477;-66
2022/09/08 10:25:03;;;;;;;1.43;1.10;;;12.80;99.90;;;;;;5105041;28;21073;-66
2022/09/08 10:27:58;;;;;;;1.03;0.90;;;12.70;99.90;;;;;;5100506;28;20848;-66
2022/09/08 10:30:57;;;;;;;1.27;1.10;;;12.70;99.90;;;;;;5105037;28;20467;-66
2022/09/08 10:34:08;;;;;;;2.30;0.97;;;12.60;99.90;;;;;;5096789;28;20450;-67
2022/09/08 10:36:58;;;;;;;1.90;1.20;;;12.60;99.90;;;;;;5110085;28;20531;-67
2022/09/08 10:39:56;;;;;;;0.83;0.83;;;12.60;99.90;;;;;;5103512;28;20462;-65
2022/09/08 10:42:47;;;;;;;0.90;0.67;;;12.60;99.90;;;;;;5109988;28;20477;-65
2022/09/08 10:45:25;;;;;;;1.90;1.03;;;12.60;99.90;;;;;;5105724;28;20491;-65
2022/09/08 10:48:32;;;;;;;0.90;0.90;;;12.60;99.90;;;;;;5103421;28;20462;-66
2022/09/08 10:51:42;;;;;;;2.00;1.90;;;12.50;99.90;;;;;;5091889;28;20493;-65
2022/09/08 10:54:34;;;;;;;4.73;1.33;;;12.50;99.90;;;;;;5044239;28;20461;-65
2022/09/08 10:57:30;;;;;;;0.80;0.80;;;12.40;99.90;;;;;;5042719;28;20465;-66
2022/09/08 11:00:08;;;;;;;1.17;0.87;;;12.40;99.90;;;;;;5041383;28;20492;-66
2022/09/08 11:03:01;;;;;;;2.63;0.90;;;12.30;99.90;;;;;;5038809;28;20507;-66
2022/09/08 11:05:47;;;;;;;2.20;1.30;;;12.30;99.90;;;;;;5042539;28;20922;-66
2022/09/08 11:08:48;;;;;;;0.87;0.87;;;12.30;99.90;;;;;;5043059;28;20545;-66
2022/09/08 11:12:03;;;;;;;1.77;1.27;;;12.30;99.90;;;;;;5046261;28;20527;-66
2022/09/08 11:15:07;;;;;;;1.60;1.03;;;12.20;99.90;;;;;;5051936;28;20468;-66
2022/09/08 11:17:46;;;;;;;3.20;1.77;;;12.20;99.90;;;;;;5037331;28;21075;-66
2022/09/08 11:20:28;;;;;;;1.97;0.90;;;12.10;99.90;;;;;;5041662;28;20465;-66
2022/09/08 11:23:13;;;;;;;1.50;0.93;;;12.10;99.90;;;;;;5042113;28;20453;-66
2022/09/08 11:26:06;;;;;;;1.17;0.83;;;12.10;99.90;;;;;;5042597;28;20461;-66
2022/09/08 11:28:49;;;;;;;1.70;0.90;;;12.10;99.90;;;;;;5078997;28;20490;-67
2022/09/08 11:31:31;;;;;;;1.30;0.97;;;12.10;99.90;;;;;;5114529;28;20458;-67
2022/09/08 11:34:18;;;;;;;1.30;0.93;;;12.10;99.90;;;;;;5100329;28;20465;-67
2022/09/08 11:37:20;;;;;;;1.33;1.13;;;12.10;99.90;;;;;;5098807;28;20459;-67
2022/09/08 11:40:06;;;;;;;1.30;0.90;;;12.10;99.90;;;;;;5106993;28;20458;-67
2022/09/08 11:42:56;;;;;;;2.13;1.00;;;12.00;99.90;;;;;;5097109;28;20466;-66
2022/09/08 11:45:38;;;;;;;1.10;1.00;;;12.00;99.90;;;;;;5103955;28;20463;-66
2022/09/08 11:48:36;;;;;;;5.60;1.40;;;11.90;99.90;;;;;;5095422;28;20542;-67
2022/09/08 11:51:32;;;;;;;4.20;1.10;;;11.80;99.90;;;;;;5125059;28;20555;-66
2022/09/08 11:54:50;;;;;;;3.37;1.63;;;11.80;99.90;;;;;;5121356;28;20462;-66
2022/09/08 11:57:51;;;;;;;1.30;0.67;;;11.80;99.90;;;;;;5119881;28;20441;-66
2022/09/08 12:00:31;;;;;;;1.20;1.10;;;11.80;99.90;;;;;;5121519;28;20447;-66
2022/09/08 12:03:33;;;;;;;0.97;0.90;;;11.80;99.90;;;;;;5104950;28;20502;-66
2022/09/08 12:06:29;;;;;;;1.07;1.00;;;11.80;99.90;;;;;;5104927;28;20468;-66
2022/09/08 12:09:29;;;;;;;0.83;0.60;;;11.70;99.90;;;;;;5106773;28;20511;-66
2022/09/08 12:12:35;;;;;;;1.63;1.00;;;11.70;99.90;;;;;;5107268;28;20458;-66
2022/09/08 12:15:23;;;;;;;2.20;0.90;;;11.60;99.90;;;;;;5095479;28;20466;-66
2022/09/08 12:18:08;;;;;;;1.60;1.17;;;11.60;99.90;;;;;;5106830;28;20490;-67
2022/09/08 12:20:53;;;;;;;1.33;0.80;;;11.60;99.90;;;;;;5109894;28;20458;-67
2022/09/08 12:23:43;;;;;;;4.33;1.63;;;11.60;99.90;;;;;;5114357;28;20445;-67
2022/09/08 12:26:29;;;;;;;0.83;0.70;;;11.70;99.90;;;;;;5097774;28;21029;-67
2022/09/08 12:29:23;;;;;;;2.80;1.13;;;11.60;99.90;;;;;;5103157;28;20490;-67
2022/09/08 12:32:19;;;;;;;1.97;0.83;;;11.50;99.90;;;;;;5100429;28;20484;-67
2022/09/08 12:35:18;;;;;;;2.43;1.20;;;11.50;99.90;;;;;;5100113;28;20446;-67
2022/09/08 12:37:54;;;;;;;1.50;1.40;;;11.50;99.90;;;;;;5105441;28;20452;-67
2022/09/08 12:40:57;;;;;;;1.23;1.13;;;11.50;99.90;;;;;;5097044;28;20830;-67
2022/09/08 12:43:36;;;;;;;3.00;0.87;;;11.50;99.90;;;;;;5103072;28;20465;-67
2022/09/08 12:47:01;;;;;;;1.20;1.10;;;11.50;99.90;;;;;;5104224;28;20557;-67
2022/09/08 12:50:10;;;;;;;0.70;0.70;;;11.40;99.90;;;;;;5103650;28;20498;-67
2022/09/08 12:52:58;;;;;;;1.40;0.80;;;11.30;99.90;;;;;;5104141;28;20454;-66
2022/09/08 12:55:35;;;;;;;1.77;0.83;;;11.30;99.90;;;;;;5110359;28;20527;-66
2022/09/08 12:58:19;;;;;;;1.60;1.07;;;11.30;99.90;;;;;;5108237;28;20465;-67
2022/09/08 13:00:59;;;;;;;4.13;1.50;;;11.20;99.90;;;;;;5107277;28;20865;-66
2022/09/08 13:03:35;;;;;;;2.63;1.23;;;11.10;99.90;;;;;;5103759;28;20524;-67
2022/09/08 13:06:41;;;;;;;3.07;1.10;;;11.20;99.90;;;;;;5106229;28;20461;-67
2022/09/08 13:09:24;;;;;;;0.80;0.67;;;11.20;99.90;;;;;;5112902;27;20511;-67
2022/09/08 13:12:31;;;;;;;1.00;0.60;;;11.20;99.90;;;;;;5117319;28;20467;-66
2022/09/08 13:15:20;;;;;;;2.20;1.00;;;11.20;99.90;;;;;;5093096;28;20492;-66
2022/09/08 13:17:58;;;;;;;1.50;0.90;;;11.20;99.90;;;;;;5104644;28;20496;-66
2022/09/08 13:20:39;;;;;;;1.47;1.37;;;11.20;99.90;;;;;;5105052;28;20538;-66
2022/09/08 13:23:30;;;;;;;1.60;1.20;;;11.10;99.90;;;;;;5117025;28;20450;-67
2022/09/08 13:26:16;;;;;;;3.30;1.97;;;11.10;99.90;;;;;;5087286;28;20447;-67
2022/09/08 13:29:04;;;;;;;2.00;1.27;;;11.10;99.90;;;;;;5106659;28;20450;-66
2022/09/08 13:32:06;;;;;;;3.10;1.80;;;11.10;99.90;;;;;;5082731;28;20590;-67
2022/09/08 13:34:54;;;;;;;0.80;0.80;;;11.10;99.90;;;;;;5083229;28;20479;-67
2022/09/08 13:37:45;;;;;;;3.83;1.70;;;11.10;99.90;;;;;;5083869;28;20432;-67
2022/09/08 13:40:29;;;;;;;4.57;1.83;;;11.00;99.90;;;;;;5083877;28;20909;-66
2022/09/08 13:43:24;;;;;;;1.27;1.17;;;11.00;99.90;;;;;;5083178;28;20454;-66
2022/09/08 13:46:12;;;;;;;1.63;1.33;;;10.90;99.90;;;;;;5082603;28;20516;-67
2022/09/08 13:49:05;;;;;;;1.87;1.40;;;10.90;99.90;;;;;;5103711;28;20474;-67
2022/09/08 13:52:05;;;;;;;1.30;1.20;;;10.90;99.90;;;;;;5094124;28;20895;-68
2022/09/08 13:55:08;;;;;;;1.40;1.07;;;10.90;99.90;;;;;;5099142;28;20446;-67
2022/09/08 13:58:02;;;;;;;1.30;1.20;;;10.90;99.90;;;;;;5039995;28;20972;-67
2022/09/08 14:01:00;;;;;;;2.67;1.43;;;10.90;99.90;;;;;;5040057;28;20440;-66
2022/09/08 14:03:33;;;;;;;1.70;1.40;;;10.90;99.90;;;;;;5032480;28;20446;-66
2022/09/08 14:06:11;;;;;;;1.87;1.50;;;10.90;99.90;;;;;;5040153;28;20981;-66
2022/09/08 14:08:50;;;;;;;1.70;1.33;;;10.90;99.90;;;;;;5040774;28;20449;-67
2022/09/08 14:11:38;;;;;;;4.10;1.33;;;10.90;99.90;;;;;;5040393;28;20519;-67